sensor_id;sensor_type;location;lat;lon;timestamp;P1;durP1;ratioP1;P2;durP2;ratioP2
68438;SDS011;55421;51.600;5.718;2023-09-18T00:02:01;33.40;;;28.00;;
68438;SDS011;55421;51.600;5.718;2023-09-18T00:04:27;32.80;;;28.40;;
68438;SDS011;55421;51.600;5.718;2023-09-18T00:06:54;37.70;;;26.30;;
68438;SDS011;55421;51.600;5.718;2023-09-18T00:09:21;32.40;;;24.70;;
68438;SDS011;55421;51.600;5.718;2023-09-18T00:11:47;31.40;;;26.70;;
68438;SDS011;55421;51.600;5.718;2023-09-18T00:14:14;32.10;;;26.10;;
68438;SDS011;55421;51.600;5.718;2023-09-18T00:16:40;31.40;;;26.10;;
68438;SDS011;55421;51.600;5.718;2023-09-18T00:19:07;34.70;;;25.60;;
68438;SDS011;55421;51.600;5.718;2023-09-18T00:21:34;33.60;;;26.90;;
68438;SDS011;55421;51.600;5.718;2023-09-18T00:24:01;34.70;;;29.90;;
68438;SDS011;55421;51.600;5.718;2023-09-18T00:26:27;37.70;;;30.20;;
68438;SDS011;55421;51.600;5.718;2023-09-18T00:28:53;36.70;;;29.10;;
68438;SDS011;55421;51.600;5.718;2023-09-18T00:31:20;34.20;;;29.00;;
68438;SDS011;55421;51.600;5.718;2023-09-18T00:33:47;36.30;;;29.50;;
68438;SDS011;55421;51.600;5.718;2023-09-18T00:36:14;34.60;;;30.40;;
68438;SDS011;55421;51.600;5.718;2023-09-18T00:38:41;32.30;;;28.80;;
68438;SDS011;55421;51.600;5.718;2023-09-18T00:41:07;36.00;;;28.10;;
68438;SDS011;55421;51.600;5.718;2023-09-18T00:43:33;33.20;;;27.60;;
68438;SDS011;55421;51.600;5.718;2023-09-18T00:46:01;31.70;;;24.70;;
68438;SDS011;55421;51.600;5.718;2023-09-18T00:48:29;32.70;;;22.80;;
68438;SDS011;55421;51.600;5.718;2023-09-18T00:50:56;25.30;;;20.60;;
68438;SDS011;55421;51.600;5.718;2023-09-18T00:53:24;23.20;;;19.50;;
68438;SDS011;55421;51.600;5.718;2023-09-18T00:55:55;24.80;;;18.40;;
68438;SDS011;55421;51.600;5.718;2023-09-18T00:58:23;23.90;;;17.60;;
68438;SDS011;55421;51.600;5.718;2023-09-18T01:00:51;20.50;;;15.70;;
68438;SDS011;55421;51.600;5.718;2023-09-18T01:03:19;23.80;;;17.40;;
68438;SDS011;55421;51.600;5.718;2023-09-18T01:05:47;18.60;;;15.40;;
68438;SDS011;55421;51.600;5.718;2023-09-18T01:08:14;22.00;;;16.00;;
68438;SDS011;55421;51.600;5.718;2023-09-18T01:10:48;19.70;;;16.30;;
68438;SDS011;55421;51.600;5.718;2023-09-18T01:13:41;19.70;;;15.10;;
68438;SDS011;55421;51.600;5.718;2023-09-18T01:16:25;22.00;;;15.30;;
68438;SDS011;55421;51.600;5.718;2023-09-18T01:18:57;18.80;;;14.30;;
68438;SDS011;55421;51.600;5.718;2023-09-18T01:21:23;21.60;;;15.00;;
68438;SDS011;55421;51.600;5.718;2023-09-18T01:23:49;18.40;;;14.20;;
68438;SDS011;55421;51.600;5.718;2023-09-18T01:26:17;18.50;;;14.60;;
68438;SDS011;55421;51.600;5.718;2023-09-18T01:28:44;19.60;;;14.70;;
68438;SDS011;55421;51.600;5.718;2023-09-18T01:31:10;17.90;;;14.10;;
68438;SDS011;55421;51.600;5.718;2023-09-18T01:33:38;18.90;;;13.40;;
68438;SDS011;55421;51.600;5.718;2023-09-18T01:36:09;18.50;;;13.90;;
68438;SDS011;55421;51.600;5.718;2023-09-18T01:38:37;17.90;;;13.80;;
68438;SDS011;55421;51.600;5.718;2023-09-18T01:41:04;17.00;;;13.60;;
68438;SDS011;55421;51.600;5.718;2023-09-18T01:43:31;16.70;;;12.70;;
68438;SDS011;55421;51.600;5.718;2023-09-18T01:45:58;16.80;;;12.70;;
68438;SDS011;55421;51.600;5.718;2023-09-18T01:48:24;18.90;;;12.10;;
68438;SDS011;55421;51.600;5.718;2023-09-18T01:50:51;21.00;;;12.40;;
68438;SDS011;55421;51.600;5.718;2023-09-18T01:53:17;15.60;;;11.00;;
68438;SDS011;55421;51.600;5.718;2023-09-18T01:55:44;15.30;;;11.60;;
68438;SDS011;55421;51.600;5.718;2023-09-18T01:58:10;17.60;;;11.10;;
68438;SDS011;55421;51.600;5.718;2023-09-18T02:00:40;16.80;;;10.20;;
68438;SDS011;55421;51.600;5.718;2023-09-18T02:03:07;17.90;;;10.10;;
68438;SDS011;55421;51.600;5.718;2023-09-18T02:05:33;13.50;;;9.30;;
68438;SDS011;55421;51.600;5.718;2023-09-18T02:08:00;13.50;;;9.60;;
68438;SDS011;55421;51.600;5.718;2023-09-18T02:10:26;14.80;;;8.90;;
68438;SDS011;55421;51.600;5.718;2023-09-18T02:12:53;15.70;;;8.50;;
68438;SDS011;55421;51.600;5.718;2023-09-18T02:15:20;12.70;;;8.30;;
68438;SDS011;55421;51.600;5.718;2023-09-18T02:17:46;13.30;;;8.40;;
68438;SDS011;55421;51.600;5.718;2023-09-18T02:20:12;11.00;;;8.30;;
68438;SDS011;55421;51.600;5.718;2023-09-18T02:22:39;11.90;;;8.00;;
68438;SDS011;55421;51.600;5.718;2023-09-18T02:25:10;10.70;;;8.30;;
68438;SDS011;55421;51.600;5.718;2023-09-18T02:27:38;13.90;;;8.00;;
68438;SDS011;55421;51.600;5.718;2023-09-18T02:30:05;15.80;;;8.00;;
68438;SDS011;55421;51.600;5.718;2023-09-18T02:32:32;13.00;;;8.20;;
68438;SDS011;55421;51.600;5.718;2023-09-18T02:35:00;15.20;;;7.90;;
68438;SDS011;55421;51.600;5.718;2023-09-18T02:37:27;13.70;;;8.10;;
68438;SDS011;55421;51.600;5.718;2023-09-18T02:39:55;11.80;;;7.50;;
68438;SDS011;55421;51.600;5.718;2023-09-18T02:42:21;13.00;;;7.70;;
68438;SDS011;55421;51.600;5.718;2023-09-18T02:44:48;14.20;;;8.00;;
68438;SDS011;55421;51.600;5.718;2023-09-18T02:47:14;15.00;;;8.30;;
68438;SDS011;55421;51.600;5.718;2023-09-18T02:49:40;14.70;;;7.70;;
68438;SDS011;55421;51.600;5.718;2023-09-18T02:52:07;13.90;;;7.70;;
68438;SDS011;55421;51.600;5.718;2023-09-18T02:54:35;14.40;;;7.50;;
68438;SDS011;55421;51.600;5.718;2023-09-18T02:57:02;12.00;;;7.40;;
68438;SDS011;55421;51.600;5.718;2023-09-18T02:59:30;11.20;;;7.30;;
68438;SDS011;55421;51.600;5.718;2023-09-18T03:01:57;11.60;;;7.10;;
68438;SDS011;55421;51.600;5.718;2023-09-18T03:04:23;13.40;;;7.60;;
68438;SDS011;55421;51.600;5.718;2023-09-18T03:06:50;10.00;;;7.00;;
68438;SDS011;55421;51.600;5.718;2023-09-18T03:09:16;13.10;;;7.40;;
68438;SDS011;55421;51.600;5.718;2023-09-18T03:11:45;13.30;;;6.90;;
68438;SDS011;55421;51.600;5.718;2023-09-18T03:14:11;14.60;;;7.30;;
68438;SDS011;55421;51.600;5.718;2023-09-18T03:16:38;10.30;;;7.70;;
68438;SDS011;55421;51.600;5.718;2023-09-18T03:19:04;15.60;;;8.30;;
68438;SDS011;55421;51.600;5.718;2023-09-18T03:21:30;13.60;;;7.70;;
68438;SDS011;55421;51.600;5.718;2023-09-18T03:23:59;13.60;;;7.20;;
68438;SDS011;55421;51.600;5.718;2023-09-18T03:26:26;12.20;;;7.80;;
68438;SDS011;55421;51.600;5.718;2023-09-18T03:28:52;12.70;;;7.60;;
68438;SDS011;55421;51.600;5.718;2023-09-18T03:31:19;13.70;;;7.60;;
68438;SDS011;55421;51.600;5.718;2023-09-18T03:33:45;14.00;;;7.60;;
68438;SDS011;55421;51.600;5.718;2023-09-18T03:36:12;11.90;;;7.10;;
68438;SDS011;55421;51.600;5.718;2023-09-18T03:38:40;12.90;;;7.20;;
68438;SDS011;55421;51.600;5.718;2023-09-18T03:41:06;13.10;;;6.50;;
68438;SDS011;55421;51.600;5.718;2023-09-18T03:43:32;13.40;;;6.40;;
68438;SDS011;55421;51.600;5.718;2023-09-18T03:46:06;8.70;;;5.80;;
68438;SDS011;55421;51.600;5.718;2023-09-18T03:48:34;15.20;;;7.10;;
68438;SDS011;55421;51.600;5.718;2023-09-18T03:51:04;14.70;;;6.20;;
68438;SDS011;55421;51.600;5.718;2023-09-18T03:53:34;7.80;;;5.70;;
68438;SDS011;55421;51.600;5.718;2023-09-18T03:56:01;13.90;;;6.40;;
68438;SDS011;55421;51.600;5.718;2023-09-18T03:58:27;9.30;;;6.10;;
68438;SDS011;55421;51.600;5.718;2023-09-18T04:00:54;19.20;;;6.30;;
68438;SDS011;55421;51.600;5.718;2023-09-18T04:03:21;10.60;;;5.50;;
68438;SDS011;55421;51.600;5.718;2023-09-18T04:05:48;17.70;;;6.20;;
68438;SDS011;55421;51.600;5.718;2023-09-18T04:08:14;12.20;;;5.90;;
68438;SDS011;55421;51.600;5.718;2023-09-18T04:10:41;14.20;;;6.40;;
68438;SDS011;55421;51.600;5.718;2023-09-18T04:13:07;15.60;;;6.50;;
68438;SDS011;55421;51.600;5.718;2023-09-18T04:15:34;14.40;;;6.20;;
68438;SDS011;55421;51.600;5.718;2023-09-18T04:18:04;13.20;;;5.90;;
68438;SDS011;55421;51.600;5.718;2023-09-18T04:20:33;10.90;;;6.00;;
68438;SDS011;55421;51.600;5.718;2023-09-18T04:23:23;10.20;;;5.50;;
68438;SDS011;55421;51.600;5.718;2023-09-18T04:25:52;11.80;;;5.60;;
68438;SDS011;55421;51.600;5.718;2023-09-18T04:28:22;11.80;;;5.70;;
68438;SDS011;55421;51.600;5.718;2023-09-18T04:30:49;12.40;;;5.90;;
68438;SDS011;55421;51.600;5.718;2023-09-18T04:33:16;11.00;;;5.40;;
68438;SDS011;55421;51.600;5.718;2023-09-18T04:35:43;12.90;;;6.30;;
68438;SDS011;55421;51.600;5.718;2023-09-18T04:38:10;12.00;;;5.80;;
68438;SDS011;55421;51.600;5.718;2023-09-18T04:40:37;12.60;;;6.40;;
68438;SDS011;55421;51.600;5.718;2023-09-18T04:43:03;9.50;;;6.30;;
68438;SDS011;55421;51.600;5.718;2023-09-18T04:45:31;10.70;;;6.20;;
68438;SDS011;55421;51.600;5.718;2023-09-18T04:47:58;11.30;;;6.20;;
68438;SDS011;55421;51.600;5.718;2023-09-18T04:50:25;16.20;;;6.50;;
68438;SDS011;55421;51.600;5.718;2023-09-18T04:52:54;13.50;;;6.50;;
68438;SDS011;55421;51.600;5.718;2023-09-18T04:55:22;12.10;;;7.20;;
68438;SDS011;55421;51.600;5.718;2023-09-18T04:57:48;14.00;;;6.90;;
68438;SDS011;55421;51.600;5.718;2023-09-18T05:00:15;12.20;;;6.60;;
68438;SDS011;55421;51.600;5.718;2023-09-18T05:02:42;12.10;;;7.50;;
68438;SDS011;55421;51.600;5.718;2023-09-18T05:05:09;13.70;;;7.70;;
68438;SDS011;55421;51.600;5.718;2023-09-18T05:07:35;10.80;;;6.60;;
68438;SDS011;55421;51.600;5.718;2023-09-18T05:10:03;13.00;;;7.10;;
68438;SDS011;55421;51.600;5.718;2023-09-18T05:12:33;11.80;;;7.40;;
68438;SDS011;55421;51.600;5.718;2023-09-18T05:14:59;15.60;;;7.70;;
68438;SDS011;55421;51.600;5.718;2023-09-18T05:17:43;12.00;;;7.20;;
68438;SDS011;55421;51.600;5.718;2023-09-18T05:20:16;10.30;;;6.90;;
68438;SDS011;55421;51.600;5.718;2023-09-18T05:22:43;13.40;;;6.80;;
68438;SDS011;55421;51.600;5.718;2023-09-18T05:25:11;9.70;;;6.00;;
68438;SDS011;55421;51.600;5.718;2023-09-18T05:27:38;12.80;;;5.70;;
68438;SDS011;55421;51.600;5.718;2023-09-18T05:30:14;5.60;;;4.30;;
68438;SDS011;55421;51.600;5.718;2023-09-18T05:32:43;11.40;;;4.60;;
68438;SDS011;55421;51.600;5.718;2023-09-18T05:35:11;6.40;;;4.30;;
68438;SDS011;55421;51.600;5.718;2023-09-18T05:37:39;7.90;;;4.20;;
68438;SDS011;55421;51.600;5.718;2023-09-18T05:40:08;5.50;;;3.60;;
68438;SDS011;55421;51.600;5.718;2023-09-18T05:42:37;5.80;;;3.40;;
68438;SDS011;55421;51.600;5.718;2023-09-18T05:45:11;7.80;;;3.90;;
68438;SDS011;55421;51.600;5.718;2023-09-18T05:47:39;3.20;;;2.90;;
68438;SDS011;55421;51.600;5.718;2023-09-18T05:50:07;5.40;;;3.90;;
68438;SDS011;55421;51.600;5.718;2023-09-18T05:52:35;4.00;;;3.10;;
68438;SDS011;55421;51.600;5.718;2023-09-18T05:55:02;4.40;;;2.90;;
68438;SDS011;55421;51.600;5.718;2023-09-18T05:57:29;5.80;;;3.30;;
68438;SDS011;55421;51.600;5.718;2023-09-18T05:59:56;4.60;;;3.00;;
68438;SDS011;55421;51.600;5.718;2023-09-18T06:02:23;4.00;;;2.50;;
68438;SDS011;55421;51.600;5.718;2023-09-18T06:05:01;4.10;;;2.30;;
68438;SDS011;55421;51.600;5.718;2023-09-18T06:07:29;4.70;;;2.50;;
68438;SDS011;55421;51.600;5.718;2023-09-18T06:09:57;7.90;;;2.60;;
68438;SDS011;55421;51.600;5.718;2023-09-18T06:12:24;4.70;;;2.30;;
68438;SDS011;55421;51.600;5.718;2023-09-18T06:14:52;2.30;;;2.10;;
68438;SDS011;55421;51.600;5.718;2023-09-18T06:17:19;5.00;;;2.40;;
68438;SDS011;55421;51.600;5.718;2023-09-18T06:19:45;3.80;;;2.20;;
68438;SDS011;55421;51.600;5.718;2023-09-18T06:22:12;2.80;;;2.00;;
68438;SDS011;55421;51.600;5.718;2023-09-18T06:24:40;4.30;;;2.20;;
68438;SDS011;55421;51.600;5.718;2023-09-18T06:27:06;5.80;;;2.00;;
68438;SDS011;55421;51.600;5.718;2023-09-18T06:29:33;5.50;;;2.00;;
68438;SDS011;55421;51.600;5.718;2023-09-18T06:32:01;3.50;;;1.80;;
68438;SDS011;55421;51.600;5.718;2023-09-18T06:34:27;5.70;;;2.00;;
68438;SDS011;55421;51.600;5.718;2023-09-18T06:36:54;1.90;;;1.70;;
68438;SDS011;55421;51.600;5.718;2023-09-18T06:39:21;2.50;;;1.90;;
68438;SDS011;55421;51.600;5.718;2023-09-18T06:41:49;2.60;;;2.00;;
68438;SDS011;55421;51.600;5.718;2023-09-18T06:44:16;3.20;;;1.80;;
68438;SDS011;55421;51.600;5.718;2023-09-18T06:46:42;3.00;;;1.70;;
68438;SDS011;55421;51.600;5.718;2023-09-18T06:49:09;2.60;;;1.70;;
68438;SDS011;55421;51.600;5.718;2023-09-18T06:51:35;2.00;;;1.50;;
68438;SDS011;55421;51.600;5.718;2023-09-18T06:54:02;3.60;;;1.80;;
68438;SDS011;55421;51.600;5.718;2023-09-18T06:56:29;3.90;;;1.70;;
68438;SDS011;55421;51.600;5.718;2023-09-18T06:58:55;2.30;;;1.50;;
68438;SDS011;55421;51.600;5.718;2023-09-18T07:01:22;4.00;;;1.70;;
68438;SDS011;55421;51.600;5.718;2023-09-18T07:03:50;1.50;;;1.40;;
68438;SDS011;55421;51.600;5.718;2023-09-18T07:06:17;3.90;;;1.70;;
68438;SDS011;55421;51.600;5.718;2023-09-18T07:08:46;4.30;;;1.60;;
68438;SDS011;55421;51.600;5.718;2023-09-18T07:11:16;3.50;;;1.50;;
68438;SDS011;55421;51.600;5.718;2023-09-18T07:13:44;5.50;;;1.80;;
68438;SDS011;55421;51.600;5.718;2023-09-18T07:16:10;2.70;;;1.60;;
68438;SDS011;55421;51.600;5.718;2023-09-18T07:18:37;2.40;;;1.90;;
68438;SDS011;55421;51.600;5.718;2023-09-18T07:21:04;4.20;;;1.50;;
68438;SDS011;55421;51.600;5.718;2023-09-18T07:23:31;2.70;;;1.60;;
68438;SDS011;55421;51.600;5.718;2023-09-18T07:25:58;1.90;;;1.50;;
68438;SDS011;55421;51.600;5.718;2023-09-18T07:28:24;3.90;;;1.50;;
68438;SDS011;55421;51.600;5.718;2023-09-18T07:30:51;3.10;;;1.40;;
68438;SDS011;55421;51.600;5.718;2023-09-18T07:33:18;3.30;;;1.70;;
68438;SDS011;55421;51.600;5.718;2023-09-18T07:35:47;3.50;;;1.80;;
68438;SDS011;55421;51.600;5.718;2023-09-18T07:38:14;1.80;;;1.60;;
68438;SDS011;55421;51.600;5.718;2023-09-18T07:40:41;7.00;;;1.50;;
68438;SDS011;55421;51.600;5.718;2023-09-18T07:43:08;3.60;;;1.60;;
68438;SDS011;55421;51.600;5.718;2023-09-18T07:45:34;3.30;;;1.60;;
68438;SDS011;55421;51.600;5.718;2023-09-18T07:48:01;2.30;;;1.50;;
68438;SDS011;55421;51.600;5.718;2023-09-18T07:50:27;2.90;;;1.50;;
68438;SDS011;55421;51.600;5.718;2023-09-18T07:52:54;2.60;;;1.80;;
68438;SDS011;55421;51.600;5.718;2023-09-18T07:55:20;3.60;;;1.70;;
68438;SDS011;55421;51.600;5.718;2023-09-18T07:57:47;2.00;;;1.40;;
68438;SDS011;55421;51.600;5.718;2023-09-18T08:00:15;3.50;;;1.70;;
68438;SDS011;55421;51.600;5.718;2023-09-18T08:02:43;3.50;;;1.70;;
68438;SDS011;55421;51.600;5.718;2023-09-18T08:05:10;2.80;;;1.60;;
68438;SDS011;55421;51.600;5.718;2023-09-18T08:07:37;1.70;;;1.30;;
68438;SDS011;55421;51.600;5.718;2023-09-18T08:10:04;5.00;;;1.70;;
68438;SDS011;55421;51.600;5.718;2023-09-18T08:12:32;2.40;;;1.50;;
68438;SDS011;55421;51.600;5.718;2023-09-18T08:14:59;1.80;;;1.40;;
68438;SDS011;55421;51.600;5.718;2023-09-18T08:17:26;3.90;;;1.90;;
68438;SDS011;55421;51.600;5.718;2023-09-18T08:19:52;3.30;;;1.40;;
68438;SDS011;55421;51.600;5.718;2023-09-18T08:22:19;4.90;;;1.60;;
68438;SDS011;55421;51.600;5.718;2023-09-18T08:24:48;3.20;;;1.50;;
68438;SDS011;55421;51.600;5.718;2023-09-18T08:27:16;3.00;;;1.50;;
68438;SDS011;55421;51.600;5.718;2023-09-18T08:29:44;3.00;;;1.40;;
68438;SDS011;55421;51.600;5.718;2023-09-18T08:32:11;2.90;;;1.70;;
68438;SDS011;55421;51.600;5.718;2023-09-18T08:34:38;4.90;;;1.80;;
68438;SDS011;55421;51.600;5.718;2023-09-18T08:37:04;6.00;;;1.70;;
68438;SDS011;55421;51.600;5.718;2023-09-18T08:39:31;4.10;;;1.70;;
68438;SDS011;55421;51.600;5.718;2023-09-18T08:42:04;5.30;;;1.60;;
68438;SDS011;55421;51.600;5.718;2023-09-18T08:44:34;2.20;;;1.40;;
68438;SDS011;55421;51.600;5.718;2023-09-18T08:47:06;2.80;;;1.40;;
68438;SDS011;55421;51.600;5.718;2023-09-18T08:49:37;4.80;;;1.40;;
68438;SDS011;55421;51.600;5.718;2023-09-18T08:52:05;4.10;;;1.50;;
68438;SDS011;55421;51.600;5.718;2023-09-18T08:54:32;1.90;;;1.30;;
68438;SDS011;55421;51.600;5.718;2023-09-18T08:56:59;2.70;;;1.80;;
68438;SDS011;55421;51.600;5.718;2023-09-18T08:59:26;4.00;;;1.50;;
68438;SDS011;55421;51.600;5.718;2023-09-18T09:01:55;1.90;;;1.50;;
68438;SDS011;55421;51.600;5.718;2023-09-18T09:04:21;3.10;;;1.70;;
68438;SDS011;55421;51.600;5.718;2023-09-18T09:06:48;2.50;;;1.70;;
68438;SDS011;55421;51.600;5.718;2023-09-18T09:09:15;2.40;;;1.70;;
68438;SDS011;55421;51.600;5.718;2023-09-18T09:11:49;2.30;;;1.70;;
68438;SDS011;55421;51.600;5.718;2023-09-18T09:14:16;4.20;;;1.50;;
68438;SDS011;55421;51.600;5.718;2023-09-18T09:16:49;2.30;;;1.60;;
68438;SDS011;55421;51.600;5.718;2023-09-18T09:19:18;3.20;;;1.90;;
68438;SDS011;55421;51.600;5.718;2023-09-18T09:21:45;2.70;;;1.50;;
68438;SDS011;55421;51.600;5.718;2023-09-18T09:24:12;2.30;;;1.80;;
68438;SDS011;55421;51.600;5.718;2023-09-18T09:26:42;5.50;;;1.90;;
68438;SDS011;55421;51.600;5.718;2023-09-18T09:29:17;1.90;;;1.60;;
68438;SDS011;55421;51.600;5.718;2023-09-18T09:31:46;3.10;;;1.70;;
68438;SDS011;55421;51.600;5.718;2023-09-18T09:34:27;3.20;;;1.80;;
68438;SDS011;55421;51.600;5.718;2023-09-18T09:36:56;4.40;;;1.90;;
68438;SDS011;55421;51.600;5.718;2023-09-18T09:39:23;4.00;;;2.10;;
68438;SDS011;55421;51.600;5.718;2023-09-18T09:41:52;6.10;;;2.10;;
68438;SDS011;55421;51.600;5.718;2023-09-18T09:44:19;4.30;;;1.90;;
68438;SDS011;55421;51.600;5.718;2023-09-18T09:46:48;6.00;;;2.20;;
68438;SDS011;55421;51.600;5.718;2023-09-18T09:49:15;3.70;;;2.10;;
68438;SDS011;55421;51.600;5.718;2023-09-18T09:51:42;3.80;;;2.20;;
68438;SDS011;55421;51.600;5.718;2023-09-18T09:54:09;4.00;;;2.50;;
68438;SDS011;55421;51.600;5.718;2023-09-18T09:56:47;5.00;;;2.10;;
68438;SDS011;55421;51.600;5.718;2023-09-18T09:59:18;5.20;;;2.10;;
68438;SDS011;55421;51.600;5.718;2023-09-18T10:01:47;4.10;;;2.30;;
68438;SDS011;55421;51.600;5.718;2023-09-18T10:04:17;6.40;;;2.50;;
68438;SDS011;55421;51.600;5.718;2023-09-18T10:06:58;6.60;;;2.00;;
68438;SDS011;55421;51.600;5.718;2023-09-18T10:09:35;3.10;;;2.00;;
68438;SDS011;55421;51.600;5.718;2023-09-18T10:12:10;3.90;;;2.40;;
68438;SDS011;55421;51.600;5.718;2023-09-18T10:14:38;8.10;;;2.30;;
68438;SDS011;55421;51.600;5.718;2023-09-18T10:17:19;3.60;;;2.20;;
68438;SDS011;55421;51.600;5.718;2023-09-18T10:19:54;5.10;;;2.20;;
68438;SDS011;55421;51.600;5.718;2023-09-18T10:22:45;4.20;;;2.50;;
68438;SDS011;55421;51.600;5.718;2023-09-18T10:25:29;4.60;;;2.30;;
68438;SDS011;55421;51.600;5.718;2023-09-18T10:27:58;3.70;;;2.30;;
68438;SDS011;55421;51.600;5.718;2023-09-18T10:30:29;4.00;;;2.00;;
68438;SDS011;55421;51.600;5.718;2023-09-18T10:33:00;3.50;;;2.20;;
68438;SDS011;55421;51.600;5.718;2023-09-18T10:35:27;3.30;;;2.10;;
68438;SDS011;55421;51.600;5.718;2023-09-18T10:37:56;4.60;;;2.10;;
68438;SDS011;55421;51.600;5.718;2023-09-18T10:40:25;4.60;;;2.10;;
68438;SDS011;55421;51.600;5.718;2023-09-18T10:42:54;7.30;;;2.50;;
68438;SDS011;55421;51.600;5.718;2023-09-18T10:45:24;3.60;;;2.20;;
68438;SDS011;55421;51.600;5.718;2023-09-18T10:47:52;5.00;;;2.30;;
68438;SDS011;55421;51.600;5.718;2023-09-18T10:50:24;3.60;;;2.50;;
68438;SDS011;55421;51.600;5.718;2023-09-18T10:52:52;4.10;;;2.30;;
68438;SDS011;55421;51.600;5.718;2023-09-18T10:55:21;2.70;;;2.40;;
68438;SDS011;55421;51.600;5.718;2023-09-18T10:57:53;4.20;;;2.00;;
68438;SDS011;55421;51.600;5.718;2023-09-18T11:00:24;6.70;;;2.50;;
68438;SDS011;55421;51.600;5.718;2023-09-18T11:05:32;5.30;;;2.30;;
68438;SDS011;55421;51.600;5.718;2023-09-18T11:11:02;4.70;;;2.50;;
68438;SDS011;55421;51.600;5.718;2023-09-18T11:13:42;2.30;;;2.10;;
68438;SDS011;55421;51.600;5.718;2023-09-18T11:21:28;2.90;;;2.00;;
68438;SDS011;55421;51.600;5.718;2023-09-18T11:24:01;5.80;;;2.70;;
68438;SDS011;55421;51.600;5.718;2023-09-18T11:26:31;4.60;;;2.00;;
68438;SDS011;55421;51.600;5.718;2023-09-18T11:29:03;5.00;;;2.50;;
68438;SDS011;55421;51.600;5.718;2023-09-18T11:31:48;5.70;;;2.50;;
68438;SDS011;55421;51.600;5.718;2023-09-18T11:34:27;4.60;;;2.50;;
68438;SDS011;55421;51.600;5.718;2023-09-18T11:36:57;6.00;;;2.50;;
68438;SDS011;55421;51.600;5.718;2023-09-18T11:39:39;5.30;;;2.30;;
68438;SDS011;55421;51.600;5.718;2023-09-18T11:42:24;4.70;;;2.60;;
68438;SDS011;55421;51.600;5.718;2023-09-18T11:45:01;3.70;;;2.10;;
68438;SDS011;55421;51.600;5.718;2023-09-18T11:47:36;3.10;;;2.40;;
68438;SDS011;55421;51.600;5.718;2023-09-18T11:50:15;3.30;;;2.20;;
68438;SDS011;55421;51.600;5.718;2023-09-18T11:52:57;9.10;;;2.60;;
68438;SDS011;55421;51.600;5.718;2023-09-18T11:55:30;2.90;;;2.50;;
68438;SDS011;55421;51.600;5.718;2023-09-18T11:58:03;5.00;;;2.70;;
68438;SDS011;55421;51.600;5.718;2023-09-18T12:00:36;6.60;;;2.90;;
68438;SDS011;55421;51.600;5.718;2023-09-18T12:03:22;3.30;;;2.50;;
68438;SDS011;55421;51.600;5.718;2023-09-18T12:06:05;6.10;;;3.00;;
68438;SDS011;55421;51.600;5.718;2023-09-18T12:08:41;6.40;;;2.30;;
68438;SDS011;55421;51.600;5.718;2023-09-18T12:11:14;3.50;;;2.40;;
68438;SDS011;55421;51.600;5.718;2023-09-18T12:13:51;3.50;;;2.20;;
68438;SDS011;55421;51.600;5.718;2023-09-18T12:16:18;3.70;;;2.20;;
68438;SDS011;55421;51.600;5.718;2023-09-18T12:18:46;3.80;;;1.90;;
68438;SDS011;55421;51.600;5.718;2023-09-18T12:21:19;2.20;;;1.90;;
68438;SDS011;55421;51.600;5.718;2023-09-18T12:23:46;3.80;;;2.30;;
68438;SDS011;55421;51.600;5.718;2023-09-18T12:26:19;3.60;;;2.70;;
68438;SDS011;55421;51.600;5.718;2023-09-18T12:28:50;2.70;;;1.80;;
68438;SDS011;55421;51.600;5.718;2023-09-18T12:31:24;3.50;;;2.40;;
68438;SDS011;55421;51.600;5.718;2023-09-18T12:33:57;2.90;;;2.60;;
68438;SDS011;55421;51.600;5.718;2023-09-18T12:36:24;3.80;;;2.20;;
68438;SDS011;55421;51.600;5.718;2023-09-18T12:38:59;4.70;;;2.40;;
68438;SDS011;55421;51.600;5.718;2023-09-18T12:41:32;4.00;;;2.50;;
68438;SDS011;55421;51.600;5.718;2023-09-18T12:44:02;3.10;;;2.00;;
68438;SDS011;55421;51.600;5.718;2023-09-18T12:46:36;2.10;;;1.90;;
68438;SDS011;55421;51.600;5.718;2023-09-18T12:49:22;3.00;;;2.10;;
68438;SDS011;55421;51.600;5.718;2023-09-18T12:52:00;4.30;;;2.30;;
68438;SDS011;55421;51.600;5.718;2023-09-18T12:54:44;2.50;;;2.20;;
68438;SDS011;55421;51.600;5.718;2023-09-18T12:57:25;2.50;;;1.80;;
68438;SDS011;55421;51.600;5.718;2023-09-18T12:59:53;2.50;;;1.70;;
68438;SDS011;55421;51.600;5.718;2023-09-18T13:02:25;2.60;;;2.00;;
68438;SDS011;55421;51.600;5.718;2023-09-18T13:04:56;3.10;;;2.00;;
68438;SDS011;55421;51.600;5.718;2023-09-18T13:07:24;3.90;;;2.30;;
68438;SDS011;55421;51.600;5.718;2023-09-18T13:10:05;3.80;;;2.10;;
68438;SDS011;55421;51.600;5.718;2023-09-18T13:12:41;3.30;;;2.10;;
68438;SDS011;55421;51.600;5.718;2023-09-18T13:15:25;3.00;;;2.10;;
68438;SDS011;55421;51.600;5.718;2023-09-18T13:18:00;3.60;;;2.20;;
68438;SDS011;55421;51.600;5.718;2023-09-18T13:20:35;4.30;;;2.10;;
68438;SDS011;55421;51.600;5.718;2023-09-18T13:23:05;2.70;;;2.50;;
68438;SDS011;55421;51.600;5.718;2023-09-18T13:25:43;7.70;;;2.30;;
68438;SDS011;55421;51.600;5.718;2023-09-18T13:28:14;3.30;;;2.10;;
68438;SDS011;55421;51.600;5.718;2023-09-18T13:30:43;4.40;;;1.90;;
68438;SDS011;55421;51.600;5.718;2023-09-18T13:35:44;5.00;;;1.70;;
68438;SDS011;55421;51.600;5.718;2023-09-18T13:38:11;3.70;;;2.20;;
68438;SDS011;55421;51.600;5.718;2023-09-18T13:40:45;4.30;;;2.20;;
68438;SDS011;55421;51.600;5.718;2023-09-18T13:43:15;4.20;;;2.00;;
68438;SDS011;55421;51.600;5.718;2023-09-18T13:45:42;2.50;;;2.20;;
68438;SDS011;55421;51.600;5.718;2023-09-18T13:48:10;2.60;;;2.10;;
68438;SDS011;55421;51.600;5.718;2023-09-18T13:50:37;4.70;;;2.00;;
68438;SDS011;55421;51.600;5.718;2023-09-18T13:53:07;3.80;;;2.20;;
68438;SDS011;55421;51.600;5.718;2023-09-18T13:55:34;7.10;;;2.30;;
68438;SDS011;55421;51.600;5.718;2023-09-18T13:58:02;3.60;;;2.20;;
68438;SDS011;55421;51.600;5.718;2023-09-18T14:00:30;4.00;;;1.90;;
68438;SDS011;55421;51.600;5.718;2023-09-18T14:02:58;3.10;;;2.00;;
68438;SDS011;55421;51.600;5.718;2023-09-18T14:05:26;3.20;;;1.90;;
68438;SDS011;55421;51.600;5.718;2023-09-18T14:07:55;3.90;;;2.00;;
68438;SDS011;55421;51.600;5.718;2023-09-18T14:10:27;2.60;;;1.80;;
68438;SDS011;55421;51.600;5.718;2023-09-18T14:12:54;2.90;;;1.70;;
68438;SDS011;55421;51.600;5.718;2023-09-18T14:15:21;2.80;;;1.60;;
68438;SDS011;55421;51.600;5.718;2023-09-18T14:17:47;5.30;;;2.00;;
68438;SDS011;55421;51.600;5.718;2023-09-18T14:20:15;5.50;;;2.00;;
68438;SDS011;55421;51.600;5.718;2023-09-18T14:22:45;2.40;;;1.90;;
68438;SDS011;55421;51.600;5.718;2023-09-18T14:25:13;4.70;;;1.90;;
68438;SDS011;55421;51.600;5.718;2023-09-18T14:27:39;1.70;;;1.50;;
68438;SDS011;55421;51.600;5.718;2023-09-18T14:30:06;2.90;;;1.70;;
68438;SDS011;55421;51.600;5.718;2023-09-18T14:32:33;3.60;;;2.00;;
68438;SDS011;55421;51.600;5.718;2023-09-18T14:35:03;4.40;;;1.90;;
68438;SDS011;55421;51.600;5.718;2023-09-18T14:37:31;3.80;;;1.80;;
68438;SDS011;55421;51.600;5.718;2023-09-18T14:39:57;3.80;;;1.90;;
68438;SDS011;55421;51.600;5.718;2023-09-18T14:42:24;1.70;;;1.60;;
68438;SDS011;55421;51.600;5.718;2023-09-18T14:44:50;5.50;;;2.00;;
68438;SDS011;55421;51.600;5.718;2023-09-18T14:47:17;1.60;;;1.50;;
68438;SDS011;55421;51.600;5.718;2023-09-18T14:49:43;3.60;;;1.90;;
68438;SDS011;55421;51.600;5.718;2023-09-18T14:52:15;2.00;;;1.70;;
68438;SDS011;55421;51.600;5.718;2023-09-18T14:54:46;3.50;;;1.70;;
68438;SDS011;55421;51.600;5.718;2023-09-18T14:57:13;1.70;;;1.60;;
68438;SDS011;55421;51.600;5.718;2023-09-18T14:59:39;1.80;;;1.60;;
68438;SDS011;55421;51.600;5.718;2023-09-18T15:02:08;1.80;;;1.60;;
68438;SDS011;55421;51.600;5.718;2023-09-18T15:04:35;2.70;;;1.60;;
68438;SDS011;55421;51.600;5.718;2023-09-18T15:07:01;3.10;;;1.70;;